sensor_id;sensor_type;location;lat;lon;timestamp;P1;durP1;ratioP1;P2;durP2;ratioP2
28078;SDS011;15388;42.238;24.684;2024-03-02T00:01:56;69.65;;;36.42;;
28078;SDS011;15388;42.238;24.684;2024-03-02T00:04:21;77.63;;;38.03;;
28078;SDS011;15388;42.238;24.684;2024-03-02T00:06:47;79.13;;;37.63;;
28078;SDS011;15388;42.238;24.684;2024-03-02T00:09:12;72.10;;;36.92;;
28078;SDS011;15388;42.238;24.684;2024-03-02T00:11:39;78.40;;;38.80;;
28078;SDS011;15388;42.238;24.684;2024-03-02T00:14:05;80.10;;;40.53;;
28078;SDS011;15388;42.238;24.684;2024-03-02T00:16:30;74.88;;;36.55;;
28078;SDS011;15388;42.238;24.684;2024-03-02T00:18:58;74.45;;;37.45;;
28078;SDS011;15388;42.238;24.684;2024-03-02T00:21:26;84.40;;;40.10;;
28078;SDS011;15388;42.238;24.684;2024-03-02T00:23:52;85.97;;;38.15;;
28078;SDS011;15388;42.238;24.684;2024-03-02T00:26:18;75.90;;;38.53;;
28078;SDS011;15388;42.238;24.684;2024-03-02T00:28:44;89.22;;;40.08;;
28078;SDS011;15388;42.238;24.684;2024-03-02T00:31:13;74.85;;;38.33;;
28078;SDS011;15388;42.238;24.684;2024-03-02T00:33:40;81.90;;;39.03;;
28078;SDS011;15388;42.238;24.684;2024-03-02T00:38:31;83.25;;;38.47;;
28078;SDS011;15388;42.238;24.684;2024-03-02T00:41:04;87.15;;;45.78;;
28078;SDS011;15388;42.238;24.684;2024-03-02T00:43:47;80.15;;;41.95;;
28078;SDS011;15388;42.238;24.684;2024-03-02T00:46:16;85.63;;;40.10;;
28078;SDS011;15388;42.238;24.684;2024-03-02T00:48:54;80.35;;;41.10;;
28078;SDS011;15388;42.238;24.684;2024-03-02T00:51:20;96.22;;;44.13;;
28078;SDS011;15388;42.238;24.684;2024-03-02T00:53:46;82.07;;;42.00;;
28078;SDS011;15388;42.238;24.684;2024-03-02T00:56:12;86.55;;;43.15;;
28078;SDS011;15388;42.238;24.684;2024-03-02T00:58:38;92.80;;;43.00;;
28078;SDS011;15388;42.238;24.684;2024-03-02T01:01:03;96.60;;;45.40;;
28078;SDS011;15388;42.238;24.684;2024-03-02T01:03:29;100.10;;;45.97;;
28078;SDS011;15388;42.238;24.684;2024-03-02T01:05:54;97.38;;;45.15;;
28078;SDS011;15388;42.238;24.684;2024-03-02T01:08:19;102.75;;;44.50;;
28078;SDS011;15388;42.238;24.684;2024-03-02T01:10:45;95.45;;;40.60;;
28078;SDS011;15388;42.238;24.684;2024-03-02T01:13:10;105.40;;;46.08;;
28078;SDS011;15388;42.238;24.684;2024-03-02T01:15:36;91.72;;;42.05;;
28078;SDS011;15388;42.238;24.684;2024-03-02T01:18:01;104.20;;;44.95;;
28078;SDS011;15388;42.238;24.684;2024-03-02T01:20:26;114.43;;;44.25;;
28078;SDS011;15388;42.238;24.684;2024-03-02T01:22:52;99.53;;;41.08;;
28078;SDS011;15388;42.238;24.684;2024-03-02T01:25:18;100.82;;;43.08;;
28078;SDS011;15388;42.238;24.684;2024-03-02T01:27:43;99.53;;;44.65;;
28078;SDS011;15388;42.238;24.684;2024-03-02T01:30:09;97.78;;;45.03;;
28078;SDS011;15388;42.238;24.684;2024-03-02T01:32:34;93.30;;;38.75;;
28078;SDS011;15388;42.238;24.684;2024-03-02T01:34:59;104.32;;;42.53;;
28078;SDS011;15388;42.238;24.684;2024-03-02T01:37:25;99.93;;;39.40;;
28078;SDS011;15388;42.238;24.684;2024-03-02T01:39:50;90.13;;;40.00;;
28078;SDS011;15388;42.238;24.684;2024-03-02T01:42:15;89.32;;;39.25;;
28078;SDS011;15388;42.238;24.684;2024-03-02T01:44:41;106.57;;;43.25;;
28078;SDS011;15388;42.238;24.684;2024-03-02T01:47:06;93.93;;;43.05;;
28078;SDS011;15388;42.238;24.684;2024-03-02T01:49:32;98.40;;;43.50;;
28078;SDS011;15388;42.238;24.684;2024-03-02T01:51:59;105.70;;;45.22;;
28078;SDS011;15388;42.238;24.684;2024-03-02T01:54:24;115.30;;;44.55;;
28078;SDS011;15388;42.238;24.684;2024-03-02T01:56:49;105.70;;;44.13;;
28078;SDS011;15388;42.238;24.684;2024-03-02T01:59:15;103.95;;;44.72;;
28078;SDS011;15388;42.238;24.684;2024-03-02T02:01:40;121.15;;;44.97;;
28078;SDS011;15388;42.238;24.684;2024-03-02T02:04:05;98.88;;;43.17;;
28078;SDS011;15388;42.238;24.684;2024-03-02T02:06:31;99.45;;;41.08;;
28078;SDS011;15388;42.238;24.684;2024-03-02T02:08:57;103.85;;;43.38;;
28078;SDS011;15388;42.238;24.684;2024-03-02T02:11:22;95.68;;;38.53;;
28078;SDS011;15388;42.238;24.684;2024-03-02T02:13:47;87.13;;;38.33;;
28078;SDS011;15388;42.238;24.684;2024-03-02T02:16:13;125.20;;;54.20;;
28078;SDS011;15388;42.238;24.684;2024-03-02T02:18:38;88.28;;;40.92;;
28078;SDS011;15388;42.238;24.684;2024-03-02T02:21:03;85.95;;;41.85;;
28078;SDS011;15388;42.238;24.684;2024-03-02T02:23:29;94.55;;;41.95;;
28078;SDS011;15388;42.238;24.684;2024-03-02T02:25:54;97.80;;;41.97;;
28078;SDS011;15388;42.238;24.684;2024-03-02T02:28:19;91.85;;;41.05;;
28078;SDS011;15388;42.238;24.684;2024-03-02T02:30:45;94.78;;;41.65;;
28078;SDS011;15388;42.238;24.684;2024-03-02T02:33:10;95.93;;;40.17;;
28078;SDS011;15388;42.238;24.684;2024-03-02T02:35:35;91.10;;;42.65;;
28078;SDS011;15388;42.238;24.684;2024-03-02T02:38:01;95.45;;;40.15;;
28078;SDS011;15388;42.238;24.684;2024-03-02T02:40:27;91.55;;;39.38;;
28078;SDS011;15388;42.238;24.684;2024-03-02T02:42:55;90.38;;;40.22;;
28078;SDS011;15388;42.238;24.684;2024-03-02T02:45:21;99.82;;;40.67;;
28078;SDS011;15388;42.238;24.684;2024-03-02T02:47:46;81.93;;;38.42;;
28078;SDS011;15388;42.238;24.684;2024-03-02T02:50:12;85.60;;;37.30;;
28078;SDS011;15388;42.238;24.684;2024-03-02T02:52:38;81.72;;;39.08;;
28078;SDS011;15388;42.238;24.684;2024-03-02T02:55:05;84.82;;;37.40;;
28078;SDS011;15388;42.238;24.684;2024-03-02T02:57:31;83.30;;;35.47;;
28078;SDS011;15388;42.238;24.684;2024-03-02T03:00:00;83.25;;;37.03;;
28078;SDS011;15388;42.238;24.684;2024-03-02T03:02:27;81.78;;;36.78;;
28078;SDS011;15388;42.238;24.684;2024-03-02T03:04:52;90.90;;;41.15;;
28078;SDS011;15388;42.238;24.684;2024-03-02T03:07:18;76.47;;;39.78;;
28078;SDS011;15388;42.238;24.684;2024-03-02T03:09:43;86.90;;;39.72;;
28078;SDS011;15388;42.238;24.684;2024-03-02T03:12:08;86.93;;;41.03;;
28078;SDS011;15388;42.238;24.684;2024-03-02T03:14:33;83.28;;;41.08;;
28078;SDS011;15388;42.238;24.684;2024-03-02T03:16:59;80.78;;;39.78;;
28078;SDS011;15388;42.238;24.684;2024-03-02T03:19:24;79.22;;;37.92;;
28078;SDS011;15388;42.238;24.684;2024-03-02T03:21:49;81.53;;;38.67;;
28078;SDS011;15388;42.238;24.684;2024-03-02T03:24:15;84.65;;;38.60;;
28078;SDS011;15388;42.238;24.684;2024-03-02T03:26:40;87.32;;;35.70;;
28078;SDS011;15388;42.238;24.684;2024-03-02T03:29:05;77.93;;;36.20;;
28078;SDS011;15388;42.238;24.684;2024-03-02T03:31:31;82.93;;;36.75;;
28078;SDS011;15388;42.238;24.684;2024-03-02T03:33:56;83.88;;;37.33;;
28078;SDS011;15388;42.238;24.684;2024-03-02T03:36:22;71.50;;;35.88;;
28078;SDS011;15388;42.238;24.684;2024-03-02T03:38:48;70.95;;;35.67;;
28078;SDS011;15388;42.238;24.684;2024-03-02T03:41:13;78.13;;;35.05;;
28078;SDS011;15388;42.238;24.684;2024-03-02T03:43:38;74.55;;;35.58;;
28078;SDS011;15388;42.238;24.684;2024-03-02T03:46:04;72.80;;;33.17;;
28078;SDS011;15388;42.238;24.684;2024-03-02T03:48:29;75.25;;;32.35;;
28078;SDS011;15388;42.238;24.684;2024-03-02T03:50:55;70.68;;;32.65;;
28078;SDS011;15388;42.238;24.684;2024-03-02T03:53:21;73.60;;;32.58;;
28078;SDS011;15388;42.238;24.684;2024-03-02T03:55:47;101.20;;;46.75;;
28078;SDS011;15388;42.238;24.684;2024-03-02T03:58:14;68.97;;;33.95;;
28078;SDS011;15388;42.238;24.684;2024-03-02T04:00:39;72.00;;;35.75;;
28078;SDS011;15388;42.238;24.684;2024-03-02T04:03:04;78.63;;;35.10;;
28078;SDS011;15388;42.238;24.684;2024-03-02T04:05:30;64.10;;;33.67;;
28078;SDS011;15388;42.238;24.684;2024-03-02T04:07:55;78.65;;;34.67;;
28078;SDS011;15388;42.238;24.684;2024-03-02T04:10:20;72.60;;;35.08;;
28078;SDS011;15388;42.238;24.684;2024-03-02T04:12:46;67.40;;;32.67;;
28078;SDS011;15388;42.238;24.684;2024-03-02T04:15:11;76.10;;;37.00;;
28078;SDS011;15388;42.238;24.684;2024-03-02T04:17:36;68.63;;;36.08;;
28078;SDS011;15388;42.238;24.684;2024-03-02T04:20:02;75.07;;;35.53;;
28078;SDS011;15388;42.238;24.684;2024-03-02T04:22:30;75.43;;;34.50;;
28078;SDS011;15388;42.238;24.684;2024-03-02T04:24:55;77.07;;;33.33;;
28078;SDS011;15388;42.238;24.684;2024-03-02T04:27:20;70.07;;;33.45;;
28078;SDS011;15388;42.238;24.684;2024-03-02T04:29:46;80.82;;;33.92;;
28078;SDS011;15388;42.238;24.684;2024-03-02T04:32:11;72.40;;;34.33;;
28078;SDS011;15388;42.238;24.684;2024-03-02T04:34:36;82.93;;;35.17;;
28078;SDS011;15388;42.238;24.684;2024-03-02T04:37:02;78.28;;;33.88;;
28078;SDS011;15388;42.238;24.684;2024-03-02T04:39:27;70.78;;;34.88;;
28078;SDS011;15388;42.238;24.684;2024-03-02T04:41:52;97.60;;;46.25;;
28078;SDS011;15388;42.238;24.684;2024-03-02T04:44:18;80.03;;;38.70;;
28078;SDS011;15388;42.238;24.684;2024-03-02T04:46:43;92.50;;;51.15;;
28078;SDS011;15388;42.238;24.684;2024-03-02T04:49:08;79.38;;;41.20;;
28078;SDS011;15388;42.238;24.684;2024-03-02T04:51:33;68.13;;;33.10;;
28078;SDS011;15388;42.238;24.684;2024-03-02T04:53:59;77.38;;;33.95;;
28078;SDS011;15388;42.238;24.684;2024-03-02T04:56:24;69.03;;;33.58;;
28078;SDS011;15388;42.238;24.684;2024-03-02T04:58:52;62.92;;;32.20;;
28078;SDS011;15388;42.238;24.684;2024-03-02T05:01:17;64.50;;;33.28;;
28078;SDS011;15388;42.238;24.684;2024-03-02T05:03:43;73.13;;;32.17;;
28078;SDS011;15388;42.238;24.684;2024-03-02T05:06:08;68.47;;;31.67;;
28078;SDS011;15388;42.238;24.684;2024-03-02T05:08:33;62.75;;;31.55;;
28078;SDS011;15388;42.238;24.684;2024-03-02T05:10:59;66.55;;;31.98;;
28078;SDS011;15388;42.238;24.684;2024-03-02T05:13:44;62.92;;;31.27;;
28078;SDS011;15388;42.238;24.684;2024-03-02T05:16:09;78.32;;;35.92;;
28078;SDS011;15388;42.238;24.684;2024-03-02T05:18:35;78.53;;;35.58;;
28078;SDS011;15388;42.238;24.684;2024-03-02T05:21:03;66.78;;;33.67;;
28078;SDS011;15388;42.238;24.684;2024-03-02T05:23:28;70.63;;;33.50;;
28078;SDS011;15388;42.238;24.684;2024-03-02T05:25:53;71.15;;;33.63;;
28078;SDS011;15388;42.238;24.684;2024-03-02T05:28:19;75.20;;;36.40;;
28078;SDS011;15388;42.238;24.684;2024-03-02T05:30:44;74.20;;;36.20;;
28078;SDS011;15388;42.238;24.684;2024-03-02T05:33:09;66.72;;;34.17;;
28078;SDS011;15388;42.238;24.684;2024-03-02T05:35:35;73.90;;;36.33;;
28078;SDS011;15388;42.238;24.684;2024-03-02T05:38:00;81.10;;;37.60;;
28078;SDS011;15388;42.238;24.684;2024-03-02T05:40:25;67.32;;;36.72;;
28078;SDS011;15388;42.238;24.684;2024-03-02T05:42:51;73.75;;;35.08;;
28078;SDS011;15388;42.238;24.684;2024-03-02T05:45:16;66.55;;;35.08;;
28078;SDS011;15388;42.238;24.684;2024-03-02T05:47:41;68.72;;;31.70;;
28078;SDS011;15388;42.238;24.684;2024-03-02T05:50:07;72.35;;;33.80;;
28078;SDS011;15388;42.238;24.684;2024-03-02T05:52:32;69.85;;;34.90;;
28078;SDS011;15388;42.238;24.684;2024-03-02T05:54:57;60.85;;;34.22;;
28078;SDS011;15388;42.238;24.684;2024-03-02T05:57:23;73.70;;;33.58;;
28078;SDS011;15388;42.238;24.684;2024-03-02T06:00:07;69.18;;;31.67;;
28078;SDS011;15388;42.238;24.684;2024-03-02T06:02:33;65.45;;;31.08;;
28078;SDS011;15388;42.238;24.684;2024-03-02T06:04:58;74.13;;;31.90;;
28078;SDS011;15388;42.238;24.684;2024-03-02T06:07:23;77.65;;;33.03;;
28078;SDS011;15388;42.238;24.684;2024-03-02T06:09:49;73.57;;;33.97;;
28078;SDS011;15388;42.238;24.684;2024-03-02T06:12:16;63.83;;;31.73;;
28078;SDS011;15388;42.238;24.684;2024-03-02T06:14:41;68.50;;;32.15;;
28078;SDS011;15388;42.238;24.684;2024-03-02T06:17:08;201.77;;;107.40;;
28078;SDS011;15388;42.238;24.684;2024-03-02T06:19:33;72.25;;;34.72;;
28078;SDS011;15388;42.238;24.684;2024-03-02T06:24:51;56.47;;;29.00;;
28078;SDS011;15388;42.238;24.684;2024-03-02T06:27:16;53.00;;;27.58;;
28078;SDS011;15388;42.238;24.684;2024-03-02T06:29:41;56.38;;;30.85;;
28078;SDS011;15388;42.238;24.684;2024-03-02T06:32:07;62.60;;;32.60;;
28078;SDS011;15388;42.238;24.684;2024-03-02T06:34:32;64.63;;;29.65;;
28078;SDS011;15388;42.238;24.684;2024-03-02T06:36:57;54.25;;;32.08;;
28078;SDS011;15388;42.238;24.684;2024-03-02T06:39:23;59.95;;;30.08;;
28078;SDS011;15388;42.238;24.684;2024-03-02T06:41:48;59.08;;;29.83;;
28078;SDS011;15388;42.238;24.684;2024-03-02T06:44:13;52.53;;;29.90;;
28078;SDS011;15388;42.238;24.684;2024-03-02T06:46:39;54.45;;;29.67;;
28078;SDS011;15388;42.238;24.684;2024-03-02T06:49:04;53.20;;;27.55;;
28078;SDS011;15388;42.238;24.684;2024-03-02T06:51:29;56.97;;;29.60;;
28078;SDS011;15388;42.238;24.684;2024-03-02T06:53:55;55.97;;;30.13;;
28078;SDS011;15388;42.238;24.684;2024-03-02T06:56:20;63.88;;;34.33;;
28078;SDS011;15388;42.238;24.684;2024-03-02T06:58:46;62.45;;;33.85;;
28078;SDS011;15388;42.238;24.684;2024-03-02T07:01:12;71.70;;;38.55;;
28078;SDS011;15388;42.238;24.684;2024-03-02T07:03:37;88.90;;;48.30;;
28078;SDS011;15388;42.238;24.684;2024-03-02T07:06:04;87.05;;;48.85;;
28078;SDS011;15388;42.238;24.684;2024-03-02T07:08:30;68.63;;;36.67;;
28078;SDS011;15388;42.238;24.684;2024-03-02T07:10:55;84.68;;;43.22;;
28078;SDS011;15388;42.238;24.684;2024-03-02T07:13:22;70.85;;;36.85;;
28078;SDS011;15388;42.238;24.684;2024-03-02T07:15:47;71.10;;;36.60;;
28078;SDS011;15388;42.238;24.684;2024-03-02T07:18:31;77.43;;;40.42;;
28078;SDS011;15388;42.238;24.684;2024-03-02T07:20:57;60.20;;;30.77;;
28078;SDS011;15388;42.238;24.684;2024-03-02T07:23:26;61.15;;;33.28;;
28078;SDS011;15388;42.238;24.684;2024-03-02T07:25:52;62.60;;;34.22;;
28078;SDS011;15388;42.238;24.684;2024-03-02T07:30:45;63.00;;;32.95;;
28078;SDS011;15388;42.238;24.684;2024-03-02T07:33:10;74.13;;;33.85;;
28078;SDS011;15388;42.238;24.684;2024-03-02T07:35:35;68.25;;;31.33;;
28078;SDS011;15388;42.238;24.684;2024-03-02T07:38:10;70.07;;;33.35;;
28078;SDS011;15388;42.238;24.684;2024-03-02T07:40:37;71.35;;;32.50;;
28078;SDS011;15388;42.238;24.684;2024-03-02T07:43:03;63.33;;;31.33;;
28078;SDS011;15388;42.238;24.684;2024-03-02T07:45:28;63.80;;;33.28;;
28078;SDS011;15388;42.238;24.684;2024-03-02T07:47:54;61.10;;;34.53;;
28078;SDS011;15388;42.238;24.684;2024-03-02T07:50:19;66.97;;;37.03;;
28078;SDS011;15388;42.238;24.684;2024-03-02T07:52:44;66.00;;;35.85;;
28078;SDS011;15388;42.238;24.684;2024-03-02T07:55:10;73.65;;;37.72;;
28078;SDS011;15388;42.238;24.684;2024-03-02T07:57:35;62.00;;;33.28;;
28078;SDS011;15388;42.238;24.684;2024-03-02T08:00:01;74.22;;;39.22;;
28078;SDS011;15388;42.238;24.684;2024-03-02T08:02:26;88.72;;;45.97;;
28078;SDS011;15388;42.238;24.684;2024-03-02T08:04:51;81.35;;;45.70;;
28078;SDS011;15388;42.238;24.684;2024-03-02T08:07:17;71.50;;;35.85;;
28078;SDS011;15388;42.238;24.684;2024-03-02T08:09:42;55.13;;;29.38;;
28078;SDS011;15388;42.238;24.684;2024-03-02T08:12:08;56.20;;;29.50;;
28078;SDS011;15388;42.238;24.684;2024-03-02T08:14:35;48.28;;;26.95;;
28078;SDS011;15388;42.238;24.684;2024-03-02T08:17:01;72.63;;;37.83;;
28078;SDS011;15388;42.238;24.684;2024-03-02T08:19:27;68.55;;;38.75;;
28078;SDS011;15388;42.238;24.684;2024-03-02T08:21:52;70.00;;;35.58;;
28078;SDS011;15388;42.238;24.684;2024-03-02T08:24:17;85.78;;;44.33;;
28078;SDS011;15388;42.238;24.684;2024-03-02T08:26:43;67.82;;;36.97;;
28078;SDS011;15388;42.238;24.684;2024-03-02T08:29:08;69.97;;;37.78;;
28078;SDS011;15388;42.238;24.684;2024-03-02T08:31:33;68.25;;;34.95;;
28078;SDS011;15388;42.238;24.684;2024-03-02T08:33:59;48.00;;;26.90;;
28078;SDS011;15388;42.238;24.684;2024-03-02T08:36:25;47.90;;;26.90;;
28078;SDS011;15388;42.238;24.684;2024-03-02T08:38:51;43.35;;;23.45;;
28078;SDS011;15388;42.238;24.684;2024-03-02T08:41:17;39.10;;;22.40;;
28078;SDS011;15388;42.238;24.684;2024-03-02T08:43:43;65.10;;;34.95;;
28078;SDS011;15388;42.238;24.684;2024-03-02T08:46:09;47.50;;;27.80;;
28078;SDS011;15388;42.238;24.684;2024-03-02T08:48:34;43.15;;;25.50;;
28078;SDS011;15388;42.238;24.684;2024-03-02T08:50:59;46.80;;;27.27;;
28078;SDS011;15388;42.238;24.684;2024-03-02T08:53:25;54.08;;;30.65;;
28078;SDS011;15388;42.238;24.684;2024-03-02T08:55:50;42.88;;;24.27;;
28078;SDS011;15388;42.238;24.684;2024-03-02T08:58:16;42.65;;;25.45;;
28078;SDS011;15388;42.238;24.684;2024-03-02T09:00:41;46.67;;;23.60;;
28078;SDS011;15388;42.238;24.684;2024-03-02T09:03:07;49.72;;;27.45;;
28078;SDS011;15388;42.238;24.684;2024-03-02T09:05:32;64.65;;;30.38;;
28078;SDS011;15388;42.238;24.684;2024-03-02T09:07:57;52.30;;;26.90;;
28078;SDS011;15388;42.238;24.684;2024-03-02T09:10:23;57.75;;;26.45;;
28078;SDS011;15388;42.238;24.684;2024-03-02T09:12:48;55.60;;;27.50;;
28078;SDS011;15388;42.238;24.684;2024-03-02T09:15:13;47.90;;;22.08;;
28078;SDS011;15388;42.238;24.684;2024-03-02T09:17:39;43.72;;;23.50;;
28078;SDS011;15388;42.238;24.684;2024-03-02T09:20:05;42.78;;;21.42;;
28078;SDS011;15388;42.238;24.684;2024-03-02T09:22:30;41.92;;;22.23;;
28078;SDS011;15388;42.238;24.684;2024-03-02T09:24:55;43.92;;;20.92;;
28078;SDS011;15388;42.238;24.684;2024-03-02T09:27:21;43.63;;;22.42;;
28078;SDS011;15388;42.238;24.684;2024-03-02T09:29:46;43.67;;;22.83;;
28078;SDS011;15388;42.238;24.684;2024-03-02T09:32:12;43.78;;;21.27;;
28078;SDS011;15388;42.238;24.684;2024-03-02T09:34:38;45.20;;;22.70;;
28078;SDS011;15388;42.238;24.684;2024-03-02T09:37:03;34.78;;;20.13;;
28078;SDS011;15388;42.238;24.684;2024-03-02T09:39:29;38.45;;;19.73;;
28078;SDS011;15388;42.238;24.684;2024-03-02T09:41:54;47.78;;;22.42;;
28078;SDS011;15388;42.238;24.684;2024-03-02T09:44:20;42.78;;;21.02;;
28078;SDS011;15388;42.238;24.684;2024-03-02T09:46:50;46.53;;;22.85;;
28078;SDS011;15388;42.238;24.684;2024-03-02T09:49:15;56.97;;;25.17;;
28078;SDS011;15388;42.238;24.684;2024-03-02T09:51:46;44.33;;;23.33;;
28078;SDS011;15388;42.238;24.684;2024-03-02T09:54:13;56.42;;;25.63;;
28078;SDS011;15388;42.238;24.684;2024-03-02T09:56:39;46.08;;;25.20;;
28078;SDS011;15388;42.238;24.684;2024-03-02T09:59:04;42.72;;;24.35;;
28078;SDS011;15388;42.238;24.684;2024-03-02T10:01:30;49.30;;;24.17;;
28078;SDS011;15388;42.238;24.684;2024-03-02T10:03:55;44.38;;;23.90;;
28078;SDS011;15388;42.238;24.684;2024-03-02T10:06:23;52.15;;;23.88;;
28078;SDS011;15388;42.238;24.684;2024-03-02T10:08:49;45.07;;;23.47;;
28078;SDS011;15388;42.238;24.684;2024-03-02T10:14:12;42.20;;;23.88;;
28078;SDS011;15388;42.238;24.684;2024-03-02T10:16:42;44.90;;;24.35;;
28078;SDS011;15388;42.238;24.684;2024-03-02T10:21:39;56.45;;;26.38;;
28078;SDS011;15388;42.238;24.684;2024-03-02T10:24:08;53.17;;;29.38;;
28078;SDS011;15388;42.238;24.684;2024-03-02T10:26:33;61.58;;;30.05;;
28078;SDS011;15388;42.238;24.684;2024-03-02T10:28:59;60.08;;;33.85;;
28078;SDS011;15388;42.238;24.684;2024-03-02T10:31:24;58.10;;;31.17;;
28078;SDS011;15388;42.238;24.684;2024-03-02T10:33:53;51.65;;;29.02;;
28078;SDS011;15388;42.238;24.684;2024-03-02T10:36:19;50.42;;;29.65;;
28078;SDS011;15388;42.238;24.684;2024-03-02T10:38:44;57.20;;;30.23;;
28078;SDS011;15388;42.238;24.684;2024-03-02T10:41:10;57.80;;;28.75;;
28078;SDS011;15388;42.238;24.684;2024-03-02T10:43:35;53.67;;;27.80;;
28078;SDS011;15388;42.238;24.684;2024-03-02T10:46:01;44.75;;;25.45;;
28078;SDS011;15388;42.238;24.684;2024-03-02T10:48:27;46.72;;;27.48;;
28078;SDS011;15388;42.238;24.684;2024-03-02T10:50:53;52.75;;;29.35;;
28078;SDS011;15388;42.238;24.684;2024-03-02T10:53:18;63.30;;;32.15;;
28078;SDS011;15388;42.238;24.684;2024-03-02T10:55:44;53.65;;;29.23;;
28078;SDS011;15388;42.238;24.684;2024-03-02T10:58:10;61.17;;;29.80;;
28078;SDS011;15388;42.238;24.684;2024-03-02T11:00:37;60.35;;;31.90;;
28078;SDS011;15388;42.238;24.684;2024-03-02T11:05:35;55.88;;;30.38;;
28078;SDS011;15388;42.238;24.684;2024-03-02T11:08:08;54.97;;;30.98;;
28078;SDS011;15388;42.238;24.684;2024-03-02T11:10:37;50.10;;;30.45;;
28078;SDS011;15388;42.238;24.684;2024-03-02T11:13:05;55.35;;;29.13;;
28078;SDS011;15388;42.238;24.684;2024-03-02T11:15:31;64.00;;;33.17;;
28078;SDS011;15388;42.238;24.684;2024-03-02T11:17:56;57.00;;;29.55;;
28078;SDS011;15388;42.238;24.684;2024-03-02T11:20:22;55.03;;;31.58;;
28078;SDS011;15388;42.238;24.684;2024-03-02T11:22:47;62.08;;;31.88;;
28078;SDS011;15388;42.238;24.684;2024-03-02T11:25:26;52.85;;;30.50;;
28078;SDS011;15388;42.238;24.684;2024-03-02T11:33:01;58.08;;;29.83;;
28078;SDS011;15388;42.238;24.684;2024-03-02T11:35:35;54.45;;;29.55;;
28078;SDS011;15388;42.238;24.684;2024-03-02T11:38:02;54.65;;;31.35;;
28078;SDS011;15388;42.238;24.684;2024-03-02T11:40:28;54.83;;;29.15;;
28078;SDS011;15388;42.238;24.684;2024-03-02T11:42:53;53.90;;;29.50;;
28078;SDS011;15388;42.238;24.684;2024-03-02T11:45:22;59.25;;;31.67;;
28078;SDS011;15388;42.238;24.684;2024-03-02T11:47:52;53.80;;;30.52;;
28078;SDS011;15388;42.238;24.684;2024-03-02T11:50:31;51.40;;;30.75;;
28078;SDS011;15388;42.238;24.684;2024-03-02T11:52:58;56.08;;;32.15;;
28078;SDS011;15388;42.238;24.684;2024-03-02T11:55:25;60.92;;;34.20;;
28078;SDS011;15388;42.238;24.684;2024-03-02T11:57:51;55.53;;;34.13;;
28078;SDS011;15388;42.238;24.684;2024-03-02T12:00:17;54.60;;;31.02;;
28078;SDS011;15388;42.238;24.684;2024-03-02T12:02:43;62.70;;;33.67;;
28078;SDS011;15388;42.238;24.684;2024-03-02T12:05:12;54.15;;;31.42;;
28078;SDS011;15388;42.238;24.684;2024-03-02T12:07:38;56.42;;;32.60;;
28078;SDS011;15388;42.238;24.684;2024-03-02T12:10:03;56.42;;;31.63;;
28078;SDS011;15388;42.238;24.684;2024-03-02T12:12:30;59.53;;;34.08;;
28078;SDS011;15388;42.238;24.684;2024-03-02T12:14:56;76.93;;;46.33;;
28078;SDS011;15388;42.238;24.684;2024-03-02T12:17:21;53.85;;;31.83;;
28078;SDS011;15388;42.238;24.684;2024-03-02T12:19:47;51.03;;;31.90;;
28078;SDS011;15388;42.238;24.684;2024-03-02T12:22:13;56.75;;;32.65;;
28078;SDS011;15388;42.238;24.684;2024-03-02T12:24:38;59.22;;;35.88;;
28078;SDS011;15388;42.238;24.684;2024-03-02T12:27:04;61.42;;;37.05;;
28078;SDS011;15388;42.238;24.684;2024-03-02T12:29:30;56.25;;;34.90;;
28078;SDS011;15388;42.238;24.684;2024-03-02T12:31:55;63.50;;;36.60;;
28078;SDS011;15388;42.238;24.684;2024-03-02T12:34:21;52.30;;;33.25;;
28078;SDS011;15388;42.238;24.684;2024-03-02T12:36:47;50.78;;;33.33;;
28078;SDS011;15388;42.238;24.684;2024-03-02T12:39:15;64.57;;;36.58;;
28078;SDS011;15388;42.238;24.684;2024-03-02T12:41:41;65.87;;;36.97;;
28078;SDS011;15388;42.238;24.684;2024-03-02T12:44:07;50.35;;;32.97;;
28078;SDS011;15388;42.238;24.684;2024-03-02T12:46:32;50.85;;;32.85;;
28078;SDS011;15388;42.238;24.684;2024-03-02T12:48:58;51.42;;;32.00;;
28078;SDS011;15388;42.238;24.684;2024-03-02T12:51:24;53.97;;;31.93;;
28078;SDS011;15388;42.238;24.684;2024-03-02T12:53:53;54.00;;;33.15;;
28078;SDS011;15388;42.238;24.684;2024-03-02T12:56:18;49.88;;;30.75;;
28078;SDS011;15388;42.238;24.684;2024-03-02T12:58:44;48.00;;;31.05;;
28078;SDS011;15388;42.238;24.684;2024-03-02T13:01:09;49.60;;;28.27;;
28078;SDS011;15388;42.238;24.684;2024-03-02T13:03:38;42.95;;;28.63;;
28078;SDS011;15388;42.238;24.684;2024-03-02T13:06:04;40.15;;;25.80;;
28078;SDS011;15388;42.238;24.684;2024-03-02T13:08:30;39.20;;;25.10;;
28078;SDS011;15388;42.238;24.684;2024-03-02T13:10:55;40.17;;;27.40;;
28078;SDS011;15388;42.238;24.684;2024-03-02T13:13:21;42.83;;;29.25;;
28078;SDS011;15388;42.238;24.684;2024-03-02T13:15:46;40.03;;;28.02;;
28078;SDS011;15388;42.238;24.684;2024-03-02T13:18:11;36.58;;;23.92;;
28078;SDS011;15388;42.238;24.684;2024-03-02T13:20:37;29.42;;;20.10;;
28078;SDS011;15388;42.238;24.684;2024-03-02T13:23:03;34.95;;;24.35;;
28078;SDS011;15388;42.238;24.684;2024-03-02T13:25:29;32.33;;;21.55;;
28078;SDS011;15388;42.238;24.684;2024-03-02T13:27:56;43.00;;;24.42;;
28078;SDS011;15388;42.238;24.684;2024-03-02T13:30:22;35.95;;;23.45;;
28078;SDS011;15388;42.238;24.684;2024-03-02T13:32:47;42.53;;;25.75;;
28078;SDS011;15388;42.238;24.684;2024-03-02T13:35:12;36.20;;;25.25;;
28078;SDS011;15388;42.238;24.684;2024-03-02T13:37:37;35.15;;;23.90;;
28078;SDS011;15388;42.238;24.684;2024-03-02T13:40:03;29.73;;;20.55;;
28078;SDS011;15388;42.238;24.684;2024-03-02T13:42:29;29.73;;;19.77;;
28078;SDS011;15388;42.238;24.684;2024-03-02T13:44:55;78.40;;;54.00;;
28078;SDS011;15388;42.238;24.684;2024-03-02T13:47:20;43.13;;;30.27;;
28078;SDS011;15388;42.238;24.684;2024-03-02T13:49:46;64.90;;;57.13;;
28078;SDS011;15388;42.238;24.684;2024-03-02T13:52:13;34.47;;;23.13;;
28078;SDS011;15388;42.238;24.684;2024-03-02T13:54:39;50.42;;;39.55;;
28078;SDS011;15388;42.238;24.684;2024-03-02T13:57:05;33.47;;;22.60;;
28078;SDS011;15388;42.238;24.684;2024-03-02T13:59:30;28.58;;;19.65;;
28078;SDS011;15388;42.238;24.684;2024-03-02T14:01:56;31.02;;;21.92;;
28078;SDS011;15388;42.238;24.684;2024-03-02T14:04:21;33.55;;;23.73;;
28078;SDS011;15388;42.238;24.684;2024-03-02T14:06:46;31.50;;;20.05;;
28078;SDS011;15388;42.238;24.684;2024-03-02T14:09:12;27.63;;;20.50;;
28078;SDS011;15388;42.238;24.684;2024-03-02T14:11:37;30.75;;;21.65;;
28078;SDS011;15388;42.238;24.684;2024-03-02T14:14:02;27.48;;;19.60;;
28078;SDS011;15388;42.238;24.684;2024-03-02T14:16:28;31.75;;;20.85;;
28078;SDS011;15388;42.238;24.684;2024-03-02T14:18:53;48.08;;;27.67;;
28078;SDS011;15388;42.238;24.684;2024-03-02T14:21:18;33.25;;;22.92;;
28078;SDS011;15388;42.238;24.684;2024-03-02T14:23:44;28.27;;;18.33;;